sensor_id;sensor_type;location;lat;lon;timestamp;temperature;humidity
16263;DHT22;8239;48.594;8.598;2022-08-19T00:01:57;18.20;99.90
16263;DHT22;8239;48.594;8.598;2022-08-19T00:04:26;18.20;99.90
16263;DHT22;8239;48.594;8.598;2022-08-19T00:06:53;18.20;99.90
16263;DHT22;8239;48.594;8.598;2022-08-19T00:09:22;18.20;99.90
16263;DHT22;8239;48.594;8.598;2022-08-19T00:11:50;18.20;99.90
16263;DHT22;8239;48.594;8.598;2022-08-19T00:14:17;18.20;99.90
16263;DHT22;8239;48.594;8.598;2022-08-19T00:16:48;18.20;99.90
16263;DHT22;8239;48.594;8.598;2022-08-19T00:19:17;18.20;99.90
16263;DHT22;8239;48.594;8.598;2022-08-19T00:21:44;18.20;99.90
16263;DHT22;8239;48.594;8.598;2022-08-19T00:24:13;18.20;99.90
16263;DHT22;8239;48.594;8.598;2022-08-19T00:26:42;18.20;99.90
16263;DHT22;8239;48.594;8.598;2022-08-19T00:29:13;18.10;99.90
16263;DHT22;8239;48.594;8.598;2022-08-19T00:31:41;18.10;99.90
16263;DHT22;8239;48.594;8.598;2022-08-19T00:34:10;18.10;99.90
16263;DHT22;8239;48.594;8.598;2022-08-19T00:36:37;18.10;99.90
16263;DHT22;8239;48.594;8.598;2022-08-19T00:39:04;18.10;99.90
16263;DHT22;8239;48.594;8.598;2022-08-19T00:41:31;18.10;99.90
16263;DHT22;8239;48.594;8.598;2022-08-19T00:44:01;18.10;99.90
16263;DHT22;8239;48.594;8.598;2022-08-19T00:46:28;18.10;99.90
16263;DHT22;8239;48.594;8.598;2022-08-19T00:48:56;18.10;99.90
16263;DHT22;8239;48.594;8.598;2022-08-19T00:51:26;18.10;99.90
16263;DHT22;8239;48.594;8.598;2022-08-19T00:53:54;18.10;99.90
16263;DHT22;8239;48.594;8.598;2022-08-19T00:56:22;18.00;99.90
16263;DHT22;8239;48.594;8.598;2022-08-19T00:58:50;18.00;99.90
16263;DHT22;8239;48.594;8.598;2022-08-19T01:01:17;18.00;99.90
16263;DHT22;8239;48.594;8.598;2022-08-19T01:03:44;18.00;99.90
16263;DHT22;8239;48.594;8.598;2022-08-19T01:06:11;18.00;99.90
16263;DHT22;8239;48.594;8.598;2022-08-19T01:08:39;18.00;99.90
16263;DHT22;8239;48.594;8.598;2022-08-19T01:11:07;18.00;99.90
16263;DHT22;8239;48.594;8.598;2022-08-19T01:13:36;18.00;99.90
16263;DHT22;8239;48.594;8.598;2022-08-19T01:16:07;18.00;99.90
16263;DHT22;8239;48.594;8.598;2022-08-19T01:18:38;18.00;99.90
16263;DHT22;8239;48.594;8.598;2022-08-19T01:21:11;18.00;99.90
16263;DHT22;8239;48.594;8.598;2022-08-19T01:23:43;17.90;99.90
16263;DHT22;8239;48.594;8.598;2022-08-19T01:26:12;17.90;99.90
16263;DHT22;8239;48.594;8.598;2022-08-19T01:28:42;17.90;99.90
16263;DHT22;8239;48.594;8.598;2022-08-19T01:31:13;17.90;99.90
16263;DHT22;8239;48.594;8.598;2022-08-19T01:33:41;17.90;99.90
16263;DHT22;8239;48.594;8.598;2022-08-19T01:36:11;17.90;99.90
16263;DHT22;8239;48.594;8.598;2022-08-19T01:38:41;17.90;99.90
16263;DHT22;8239;48.594;8.598;2022-08-19T01:41:11;17.80;99.90
16263;DHT22;8239;48.594;8.598;2022-08-19T01:43:39;17.80;99.90
16263;DHT22;8239;48.594;8.598;2022-08-19T01:46:06;17.80;99.90
16263;DHT22;8239;48.594;8.598;2022-08-19T01:48:35;17.70;99.90
16263;DHT22;8239;48.594;8.598;2022-08-19T01:51:02;17.70;99.90
16263;DHT22;8239;48.594;8.598;2022-08-19T01:53:29;17.70;99.90
16263;DHT22;8239;48.594;8.598;2022-08-19T01:55:57;17.70;99.90
16263;DHT22;8239;48.594;8.598;2022-08-19T01:58:29;17.60;99.90
16263;DHT22;8239;48.594;8.598;2022-08-19T02:00:58;17.60;99.90
16263;DHT22;8239;48.594;8.598;2022-08-19T02:03:25;17.60;99.90
16263;DHT22;8239;48.594;8.598;2022-08-19T02:05:56;17.60;99.90
16263;DHT22;8239;48.594;8.598;2022-08-19T02:08:25;17.50;99.90
16263;DHT22;8239;48.594;8.598;2022-08-19T02:10:52;17.50;99.90
16263;DHT22;8239;48.594;8.598;2022-08-19T02:13:20;17.50;99.90
16263;DHT22;8239;48.594;8.598;2022-08-19T02:15:48;17.50;99.90
16263;DHT22;8239;48.594;8.598;2022-08-19T02:18:15;17.50;99.90
16263;DHT22;8239;48.594;8.598;2022-08-19T02:20:44;17.50;99.90
16263;DHT22;8239;48.594;8.598;2022-08-19T02:23:13;17.40;99.90
16263;DHT22;8239;48.594;8.598;2022-08-19T02:25:41;17.40;99.90
16263;DHT22;8239;48.594;8.598;2022-08-19T02:28:10;17.40;99.90
16263;DHT22;8239;48.594;8.598;2022-08-19T02:30:37;17.30;99.90
16263;DHT22;8239;48.594;8.598;2022-08-19T02:33:06;17.30;99.90
16263;DHT22;8239;48.594;8.598;2022-08-19T02:35:33;17.20;99.90
16263;DHT22;8239;48.594;8.598;2022-08-19T02:38:00;17.20;99.90
16263;DHT22;8239;48.594;8.598;2022-08-19T02:40:48;17.20;99.90
16263;DHT22;8239;48.594;8.598;2022-08-19T02:43:18;17.10;99.90
16263;DHT22;8239;48.594;8.598;2022-08-19T02:45:47;17.10;99.90
16263;DHT22;8239;48.594;8.598;2022-08-19T02:48:17;17.10;99.90
16263;DHT22;8239;48.594;8.598;2022-08-19T02:50:45;17.00;99.90
16263;DHT22;8239;48.594;8.598;2022-08-19T02:53:12;17.00;99.90
16263;DHT22;8239;48.594;8.598;2022-08-19T02:55:43;17.00;99.90
16263;DHT22;8239;48.594;8.598;2022-08-19T02:58:11;17.00;99.90
16263;DHT22;8239;48.594;8.598;2022-08-19T03:00:42;17.00;99.90
16263;DHT22;8239;48.594;8.598;2022-08-19T03:03:10;17.00;99.90
16263;DHT22;8239;48.594;8.598;2022-08-19T03:05:39;16.90;99.90
16263;DHT22;8239;48.594;8.598;2022-08-19T03:08:06;16.90;99.90
16263;DHT22;8239;48.594;8.598;2022-08-19T03:10:40;16.90;99.90
16263;DHT22;8239;48.594;8.598;2022-08-19T03:13:10;16.90;99.90
16263;DHT22;8239;48.594;8.598;2022-08-19T03:15:39;16.90;99.90
16263;DHT22;8239;48.594;8.598;2022-08-19T03:18:07;16.90;99.90
16263;DHT22;8239;48.594;8.598;2022-08-19T03:20:34;16.90;99.90
16263;DHT22;8239;48.594;8.598;2022-08-19T03:23:07;16.90;99.90
16263;DHT22;8239;48.594;8.598;2022-08-19T03:25:37;16.90;99.90
16263;DHT22;8239;48.594;8.598;2022-08-19T03:28:06;16.90;99.90
16263;DHT22;8239;48.594;8.598;2022-08-19T03:30:33;16.90;99.90
16263;DHT22;8239;48.594;8.598;2022-08-19T03:33:00;16.90;99.90
16263;DHT22;8239;48.594;8.598;2022-08-19T03:35:28;16.90;99.90
16263;DHT22;8239;48.594;8.598;2022-08-19T03:37:55;16.90;99.90
16263;DHT22;8239;48.594;8.598;2022-08-19T03:40:24;16.90;99.90
16263;DHT22;8239;48.594;8.598;2022-08-19T03:42:51;16.90;99.90
16263;DHT22;8239;48.594;8.598;2022-08-19T03:45:18;16.90;99.90
16263;DHT22;8239;48.594;8.598;2022-08-19T03:47:45;16.80;99.90
16263;DHT22;8239;48.594;8.598;2022-08-19T03:50:12;16.80;99.90
16263;DHT22;8239;48.594;8.598;2022-08-19T03:52:39;16.80;99.90
16263;DHT22;8239;48.594;8.598;2022-08-19T03:55:07;16.80;99.90
16263;DHT22;8239;48.594;8.598;2022-08-19T03:57:36;16.70;99.90
16263;DHT22;8239;48.594;8.598;2022-08-19T04:00:05;16.70;99.90
16263;DHT22;8239;48.594;8.598;2022-08-19T04:02:33;16.70;99.90
16263;DHT22;8239;48.594;8.598;2022-08-19T04:05:00;16.70;99.90
16263;DHT22;8239;48.594;8.598;2022-08-19T04:07:28;16.60;99.90
16263;DHT22;8239;48.594;8.598;2022-08-19T04:09:55;16.60;99.90
16263;DHT22;8239;48.594;8.598;2022-08-19T04:12:22;16.60;99.90
16263;DHT22;8239;48.594;8.598;2022-08-19T04:14:50;16.60;99.90
16263;DHT22;8239;48.594;8.598;2022-08-19T04:17:17;16.60;99.90
16263;DHT22;8239;48.594;8.598;2022-08-19T04:19:44;16.60;99.90
16263;DHT22;8239;48.594;8.598;2022-08-19T04:22:11;16.60;99.90
16263;DHT22;8239;48.594;8.598;2022-08-19T04:24:38;16.60;99.90
16263;DHT22;8239;48.594;8.598;2022-08-19T04:27:05;16.60;99.90
16263;DHT22;8239;48.594;8.598;2022-08-19T04:29:33;16.50;99.90
16263;DHT22;8239;48.594;8.598;2022-08-19T04:32:02;16.60;99.90
16263;DHT22;8239;48.594;8.598;2022-08-19T04:34:30;16.50;99.90
16263;DHT22;8239;48.594;8.598;2022-08-19T04:36:58;16.60;99.90
16263;DHT22;8239;48.594;8.598;2022-08-19T04:39:28;16.60;99.90
16263;DHT22;8239;48.594;8.598;2022-08-19T04:42:09;16.60;99.90
16263;DHT22;8239;48.594;8.598;2022-08-19T04:44:53;16.60;99.90
16263;DHT22;8239;48.594;8.598;2022-08-19T04:47:21;16.70;99.90
16263;DHT22;8239;48.594;8.598;2022-08-19T04:49:48;16.70;99.90
16263;DHT22;8239;48.594;8.598;2022-08-19T04:52:15;16.70;99.90
16263;DHT22;8239;48.594;8.598;2022-08-19T04:54:42;16.80;99.90
16263;DHT22;8239;48.594;8.598;2022-08-19T04:57:09;16.80;99.90
16263;DHT22;8239;48.594;8.598;2022-08-19T04:59:37;16.80;99.90
16263;DHT22;8239;48.594;8.598;2022-08-19T05:02:06;16.80;99.90
16263;DHT22;8239;48.594;8.598;2022-08-19T05:04:35;16.80;99.90
16263;DHT22;8239;48.594;8.598;2022-08-19T05:07:04;16.80;99.90
16263;DHT22;8239;48.594;8.598;2022-08-19T05:09:31;16.80;99.90
16263;DHT22;8239;48.594;8.598;2022-08-19T05:11:58;16.80;99.90
16263;DHT22;8239;48.594;8.598;2022-08-19T05:14:25;16.80;99.90
16263;DHT22;8239;48.594;8.598;2022-08-19T05:16:52;16.80;99.90
16263;DHT22;8239;48.594;8.598;2022-08-19T05:19:19;16.90;99.90
16263;DHT22;8239;48.594;8.598;2022-08-19T05:22:05;16.90;99.90
16263;DHT22;8239;48.594;8.598;2022-08-19T05:24:49;16.90;99.90
16263;DHT22;8239;48.594;8.598;2022-08-19T05:27:16;16.90;99.90
16263;DHT22;8239;48.594;8.598;2022-08-19T05:29:43;17.00;99.90
16263;DHT22;8239;48.594;8.598;2022-08-19T05:32:10;17.00;99.90
16263;DHT22;8239;48.594;8.598;2022-08-19T05:34:37;17.00;99.90
16263;DHT22;8239;48.594;8.598;2022-08-19T05:37:07;17.00;99.90
16263;DHT22;8239;48.594;8.598;2022-08-19T05:39:36;17.10;99.90
16263;DHT22;8239;48.594;8.598;2022-08-19T05:42:05;17.10;99.90
16263;DHT22;8239;48.594;8.598;2022-08-19T05:44:35;17.20;99.90
16263;DHT22;8239;48.594;8.598;2022-08-19T05:47:05;17.20;99.90
16263;DHT22;8239;48.594;8.598;2022-08-19T05:49:34;17.20;99.90
16263;DHT22;8239;48.594;8.598;2022-08-19T05:52:02;17.30;99.90
16263;DHT22;8239;48.594;8.598;2022-08-19T05:54:32;17.30;99.90
16263;DHT22;8239;48.594;8.598;2022-08-19T05:57:00;17.40;99.90
16263;DHT22;8239;48.594;8.598;2022-08-19T05:59:27;17.40;99.90
16263;DHT22;8239;48.594;8.598;2022-08-19T06:01:55;17.50;99.90
16263;DHT22;8239;48.594;8.598;2022-08-19T06:04:22;17.50;99.90
16263;DHT22;8239;48.594;8.598;2022-08-19T06:06:51;17.50;99.90
16263;DHT22;8239;48.594;8.598;2022-08-19T06:09:20;17.60;99.90
16263;DHT22;8239;48.594;8.598;2022-08-19T06:11:50;17.60;99.90
16263;DHT22;8239;48.594;8.598;2022-08-19T06:14:22;17.70;99.90
16263;DHT22;8239;48.594;8.598;2022-08-19T06:16:49;17.70;99.90
16263;DHT22;8239;48.594;8.598;2022-08-19T06:19:19;17.80;99.90
16263;DHT22;8239;48.594;8.598;2022-08-19T06:21:48;17.90;99.90
16263;DHT22;8239;48.594;8.598;2022-08-19T06:24:19;17.90;99.90
16263;DHT22;8239;48.594;8.598;2022-08-19T06:26:48;17.90;99.90
16263;DHT22;8239;48.594;8.598;2022-08-19T06:29:17;18.00;99.90
16263;DHT22;8239;48.594;8.598;2022-08-19T06:31:46;18.10;99.90
16263;DHT22;8239;48.594;8.598;2022-08-19T06:34:15;18.20;99.90
16263;DHT22;8239;48.594;8.598;2022-08-19T06:36:45;18.20;99.90
16263;DHT22;8239;48.594;8.598;2022-08-19T06:39:15;18.30;99.90
16263;DHT22;8239;48.594;8.598;2022-08-19T06:41:46;18.30;99.90
16263;DHT22;8239;48.594;8.598;2022-08-19T06:44:16;18.40;99.90
16263;DHT22;8239;48.594;8.598;2022-08-19T06:46:43;18.40;99.90
16263;DHT22;8239;48.594;8.598;2022-08-19T06:49:11;18.40;99.90
16263;DHT22;8239;48.594;8.598;2022-08-19T06:51:41;18.40;99.90
16263;DHT22;8239;48.594;8.598;2022-08-19T06:54:09;18.50;99.90
16263;DHT22;8239;48.594;8.598;2022-08-19T06:56:36;18.50;99.90
16263;DHT22;8239;48.594;8.598;2022-08-19T06:59:09;18.60;99.90
16263;DHT22;8239;48.594;8.598;2022-08-19T07:01:42;18.70;99.90
16263;DHT22;8239;48.594;8.598;2022-08-19T07:04:13;18.80;99.90
16263;DHT22;8239;48.594;8.598;2022-08-19T07:06:41;18.90;99.90
16263;DHT22;8239;48.594;8.598;2022-08-19T07:09:11;18.90;99.90
16263;DHT22;8239;48.594;8.598;2022-08-19T07:11:38;19.00;99.90
16263;DHT22;8239;48.594;8.598;2022-08-19T07:14:09;19.10;99.90
16263;DHT22;8239;48.594;8.598;2022-08-19T07:16:38;19.10;99.90
16263;DHT22;8239;48.594;8.598;2022-08-19T07:19:05;19.20;99.90
16263;DHT22;8239;48.594;8.598;2022-08-19T07:21:32;19.30;99.90
16263;DHT22;8239;48.594;8.598;2022-08-19T07:23:59;19.30;99.90
16263;DHT22;8239;48.594;8.598;2022-08-19T07:26:29;19.40;99.90
16263;DHT22;8239;48.594;8.598;2022-08-19T07:28:56;19.50;99.90
16263;DHT22;8239;48.594;8.598;2022-08-19T07:31:26;19.60;99.90
16263;DHT22;8239;48.594;8.598;2022-08-19T07:33:55;19.70;99.90
16263;DHT22;8239;48.594;8.598;2022-08-19T07:36:24;19.90;99.90
16263;DHT22;8239;48.594;8.598;2022-08-19T07:38:54;20.00;99.90
16263;DHT22;8239;48.594;8.598;2022-08-19T07:41:23;20.20;99.90
16263;DHT22;8239;48.594;8.598;2022-08-19T07:43:52;20.30;99.90
16263;DHT22;8239;48.594;8.598;2022-08-19T07:46:19;20.50;99.90
16263;DHT22;8239;48.594;8.598;2022-08-19T07:48:48;20.80;99.90
16263;DHT22;8239;48.594;8.598;2022-08-19T07:51:20;21.00;99.90
16263;DHT22;8239;48.594;8.598;2022-08-19T07:53:48;21.20;99.90
16263;DHT22;8239;48.594;8.598;2022-08-19T07:56:16;21.50;99.90
16263;DHT22;8239;48.594;8.598;2022-08-19T07:58:45;21.60;99.90
16263;DHT22;8239;48.594;8.598;2022-08-19T08:01:15;21.60;99.90
16263;DHT22;8239;48.594;8.598;2022-08-19T08:03:43;21.50;99.90
16263;DHT22;8239;48.594;8.598;2022-08-19T08:06:29;21.50;99.90
16263;DHT22;8239;48.594;8.598;2022-08-19T08:09:16;21.60;99.90
16263;DHT22;8239;48.594;8.598;2022-08-19T08:11:50;21.60;99.90
16263;DHT22;8239;48.594;8.598;2022-08-19T08:14:22;21.70;99.90
16263;DHT22;8239;48.594;8.598;2022-08-19T08:16:50;21.80;99.90
16263;DHT22;8239;48.594;8.598;2022-08-19T08:19:19;21.90;99.90
16263;DHT22;8239;48.594;8.598;2022-08-19T08:21:48;22.00;99.90
16263;DHT22;8239;48.594;8.598;2022-08-19T08:24:16;22.20;99.90
16263;DHT22;8239;48.594;8.598;2022-08-19T08:26:44;22.40;99.90
16263;DHT22;8239;48.594;8.598;2022-08-19T08:29:12;22.40;99.50
16263;DHT22;8239;48.594;8.598;2022-08-19T08:31:42;22.50;99.30
16263;DHT22;8239;48.594;8.598;2022-08-19T08:34:12;22.40;99.10
16263;DHT22;8239;48.594;8.598;2022-08-19T08:36:40;22.30;98.80
16263;DHT22;8239;48.594;8.598;2022-08-19T08:39:10;22.10;98.40
16263;DHT22;8239;48.594;8.598;2022-08-19T08:41:44;21.90;99.10
16263;DHT22;8239;48.594;8.598;2022-08-19T08:44:17;21.60;99.20
16263;DHT22;8239;48.594;8.598;2022-08-19T08:46:48;21.50;99.80
16263;DHT22;8239;48.594;8.598;2022-08-19T08:49:31;21.40;99.80
16263;DHT22;8239;48.594;8.598;2022-08-19T08:52:04;21.30;99.90
16263;DHT22;8239;48.594;8.598;2022-08-19T08:54:37;21.20;99.90
16263;DHT22;8239;48.594;8.598;2022-08-19T08:57:09;21.10;99.90
16263;DHT22;8239;48.594;8.598;2022-08-19T08:59:40;21.10;99.90
16263;DHT22;8239;48.594;8.598;2022-08-19T09:02:08;21.10;99.90
16263;DHT22;8239;48.594;8.598;2022-08-19T09:04:36;21.20;99.90
16263;DHT22;8239;48.594;8.598;2022-08-19T09:07:25;21.30;99.90
16263;DHT22;8239;48.594;8.598;2022-08-19T09:10:02;21.40;99.90
16263;DHT22;8239;48.594;8.598;2022-08-19T09:12:35;21.40;99.90
16263;DHT22;8239;48.594;8.598;2022-08-19T09:15:07;21.50;99.90
16263;DHT22;8239;48.594;8.598;2022-08-19T09:17:35;21.60;99.90
16263;DHT22;8239;48.594;8.598;2022-08-19T09:20:08;21.70;99.90
16263;DHT22;8239;48.594;8.598;2022-08-19T09:22:40;21.80;99.90
16263;DHT22;8239;48.594;8.598;2022-08-19T09:25:14;21.90;99.60
16263;DHT22;8239;48.594;8.598;2022-08-19T09:27:42;22.00;99.50
16263;DHT22;8239;48.594;8.598;2022-08-19T09:30:13;22.10;99.20
16263;DHT22;8239;48.594;8.598;2022-08-19T09:32:41;22.30;99.00
16263;DHT22;8239;48.594;8.598;2022-08-19T09:35:09;22.40;98.00
16263;DHT22;8239;48.594;8.598;2022-08-19T09:37:36;22.50;97.70
16263;DHT22;8239;48.594;8.598;2022-08-19T09:40:04;22.60;96.90
16263;DHT22;8239;48.594;8.598;2022-08-19T09:42:34;22.60;96.20
16263;DHT22;8239;48.594;8.598;2022-08-19T09:45:01;22.70;96.10
16263;DHT22;8239;48.594;8.598;2022-08-19T09:47:28;22.80;96.10
16263;DHT22;8239;48.594;8.598;2022-08-19T09:49:55;22.90;95.70
16263;DHT22;8239;48.594;8.598;2022-08-19T09:52:23;23.00;95.60
16263;DHT22;8239;48.594;8.598;2022-08-19T09:54:52;23.20;95.10
16263;DHT22;8239;48.594;8.598;2022-08-19T09:57:19;23.30;94.10
16263;DHT22;8239;48.594;8.598;2022-08-19T09:59:47;23.50;93.80
16263;DHT22;8239;48.594;8.598;2022-08-19T10:02:14;23.60;93.40
16263;DHT22;8239;48.594;8.598;2022-08-19T10:04:41;23.70;93.10
16263;DHT22;8239;48.594;8.598;2022-08-19T10:07:25;23.90;92.60
16263;DHT22;8239;48.594;8.598;2022-08-19T10:09:52;24.10;92.60
16263;DHT22;8239;48.594;8.598;2022-08-19T10:12:19;24.40;91.90
16263;DHT22;8239;48.594;8.598;2022-08-19T10:14:48;24.60;91.30
16263;DHT22;8239;48.594;8.598;2022-08-19T10:17:16;24.80;90.30
16263;DHT22;8239;48.594;8.598;2022-08-19T10:19:43;25.00;89.50
16263;DHT22;8239;48.594;8.598;2022-08-19T10:22:11;25.20;88.90
16263;DHT22;8239;48.594;8.598;2022-08-19T10:24:39;25.40;87.80
16263;DHT22;8239;48.594;8.598;2022-08-19T10:27:06;25.60;86.80
16263;DHT22;8239;48.594;8.598;2022-08-19T10:29:35;25.80;84.70
16263;DHT22;8239;48.594;8.598;2022-08-19T10:32:05;26.00;82.40
16263;DHT22;8239;48.594;8.598;2022-08-19T10:34:34;26.10;80.80
16263;DHT22;8239;48.594;8.598;2022-08-19T10:37:03;26.30;79.20
16263;DHT22;8239;48.594;8.598;2022-08-19T10:39:31;26.30;77.90
16263;DHT22;8239;48.594;8.598;2022-08-19T10:41:59;26.30;77.80
16263;DHT22;8239;48.594;8.598;2022-08-19T10:44:26;26.20;77.10
16263;DHT22;8239;48.594;8.598;2022-08-19T10:46:53;26.10;76.90
16263;DHT22;8239;48.594;8.598;2022-08-19T10:49:22;26.20;77.80
16263;DHT22;8239;48.594;8.598;2022-08-19T10:51:49;26.20;77.90
16263;DHT22;8239;48.594;8.598;2022-08-19T10:54:34;26.20;77.60
16263;DHT22;8239;48.594;8.598;2022-08-19T10:57:18;26.20;78.10
16263;DHT22;8239;48.594;8.598;2022-08-19T10:59:45;26.20;77.80
16263;DHT22;8239;48.594;8.598;2022-08-19T11:02:13;26.20;77.50
16263;DHT22;8239;48.594;8.598;2022-08-19T11:04:41;26.30;76.60
16263;DHT22;8239;48.594;8.598;2022-08-19T11:07:08;26.50;74.80
16263;DHT22;8239;48.594;8.598;2022-08-19T11:09:40;26.60;73.90
16263;DHT22;8239;48.594;8.598;2022-08-19T11:12:08;26.70;74.20
16263;DHT22;8239;48.594;8.598;2022-08-19T11:14:35;26.70;73.40
16263;DHT22;8239;48.594;8.598;2022-08-19T11:17:04;26.70;72.40
16263;DHT22;8239;48.594;8.598;2022-08-19T11:19:31;26.50;71.50
16263;DHT22;8239;48.594;8.598;2022-08-19T11:22:00;26.40;71.60
16263;DHT22;8239;48.594;8.598;2022-08-19T11:24:29;26.30;73.10
16263;DHT22;8239;48.594;8.598;2022-08-19T11:27:01;26.40;72.50
16263;DHT22;8239;48.594;8.598;2022-08-19T11:29:30;26.60;73.00
16263;DHT22;8239;48.594;8.598;2022-08-19T11:31:57;26.90;71.70
16263;DHT22;8239;48.594;8.598;2022-08-19T11:34:27;27.10;68.90
16263;DHT22;8239;48.594;8.598;2022-08-19T11:36:55;27.10;68.60
16263;DHT22;8239;48.594;8.598;2022-08-19T11:39:27;26.80;68.90
16263;DHT22;8239;48.594;8.598;2022-08-19T11:41:57;26.50;70.00
16263;DHT22;8239;48.594;8.598;2022-08-19T11:44:24;26.10;70.80
16263;DHT22;8239;48.594;8.598;2022-08-19T11:46:51;25.80;72.30
16263;DHT22;8239;48.594;8.598;2022-08-19T11:49:19;25.60;73.20
16263;DHT22;8239;48.594;8.598;2022-08-19T11:51:47;25.60;74.20
16263;DHT22;8239;48.594;8.598;2022-08-19T11:54:16;26.20;75.30
16263;DHT22;8239;48.594;8.598;2022-08-19T11:56:45;27.00;73.20
16263;DHT22;8239;48.594;8.598;2022-08-19T11:59:14;27.90;68.70
16263;DHT22;8239;48.594;8.598;2022-08-19T12:01:41;28.70;66.50
16263;DHT22;8239;48.594;8.598;2022-08-19T12:04:09;29.20;63.90
16263;DHT22;8239;48.594;8.598;2022-08-19T12:06:38;29.40;61.40
16263;DHT22;8239;48.594;8.598;2022-08-19T12:09:06;29.40;59.00
16263;DHT22;8239;48.594;8.598;2022-08-19T12:11:34;29.30;58.30
16263;DHT22;8239;48.594;8.598;2022-08-19T12:14:04;29.30;58.00
16263;DHT22;8239;48.594;8.598;2022-08-19T12:16:31;29.30;57.80
16263;DHT22;8239;48.594;8.598;2022-08-19T12:18:59;29.00;57.20
16263;DHT22;8239;48.594;8.598;2022-08-19T12:21:30;28.50;59.10
16263;DHT22;8239;48.594;8.598;2022-08-19T12:23:59;28.00;61.40
16263;DHT22;8239;48.594;8.598;2022-08-19T12:26:27;27.50;63.40
16263;DHT22;8239;48.594;8.598;2022-08-19T12:28:55;27.20;64.90
16263;DHT22;8239;48.594;8.598;2022-08-19T12:31:26;27.10;65.10
16263;DHT22;8239;48.594;8.598;2022-08-19T12:33:54;27.10;65.50
16263;DHT22;8239;48.594;8.598;2022-08-19T12:36:21;27.10;64.70
16263;DHT22;8239;48.594;8.598;2022-08-19T12:38:48;27.00;64.80
16263;DHT22;8239;48.594;8.598;2022-08-19T12:41:17;26.90;65.00
16263;DHT22;8239;48.594;8.598;2022-08-19T12:43:44;26.70;65.70
16263;DHT22;8239;48.594;8.598;2022-08-19T12:46:11;26.70;67.10
16263;DHT22;8239;48.594;8.598;2022-08-19T12:48:41;27.20;67.60
16263;DHT22;8239;48.594;8.598;2022-08-19T12:51:12;28.10;66.20
16263;DHT22;8239;48.594;8.598;2022-08-19T12:53:39;28.60;62.50
16263;DHT22;8239;48.594;8.598;2022-08-19T12:56:07;28.70;61.10
16263;DHT22;8239;48.594;8.598;2022-08-19T12:58:34;28.40;60.40
16263;DHT22;8239;48.594;8.598;2022-08-19T13:01:06;27.80;61.70
16263;DHT22;8239;48.594;8.598;2022-08-19T13:03:34;27.20;63.10
16263;DHT22;8239;48.594;8.598;2022-08-19T13:06:02;26.60;65.10
16263;DHT22;8239;48.594;8.598;2022-08-19T13:08:30;26.00;66.70
16263;DHT22;8239;48.594;8.598;2022-08-19T13:10:57;25.40;68.50
16263;DHT22;8239;48.594;8.598;2022-08-19T13:13:25;25.00;70.10
16263;DHT22;8239;48.594;8.598;2022-08-19T13:15:52;24.70;72.10
16263;DHT22;8239;48.594;8.598;2022-08-19T13:18:27;24.40;72.90
16263;DHT22;8239;48.594;8.598;2022-08-19T13:20:54;24.30;73.90
16263;DHT22;8239;48.594;8.598;2022-08-19T13:23:23;24.20;74.80
16263;DHT22;8239;48.594;8.598;2022-08-19T13:25:56;24.30;74.90
16263;DHT22;8239;48.594;8.598;2022-08-19T13:28:23;24.40;74.80
16263;DHT22;8239;48.594;8.598;2022-08-19T13:30:50;24.60;74.60
16263;DHT22;8239;48.594;8.598;2022-08-19T13:33:35;24.80;73.70
16263;DHT22;8239;48.594;8.598;2022-08-19T13:36:02;24.90;72.70
16263;DHT22;8239;48.594;8.598;2022-08-19T13:38:34;24.90;72.40
16263;DHT22;8239;48.594;8.598;2022-08-19T13:41:05;24.80;72.60
16263;DHT22;8239;48.594;8.598;2022-08-19T13:43:32;24.50;72.80
16263;DHT22;8239;48.594;8.598;2022-08-19T13:46:00;24.30;72.80
16263;DHT22;8239;48.594;8.598;2022-08-19T13:48:34;24.10;72.90
16263;DHT22;8239;48.594;8.598;2022-08-19T13:51:05;23.90;73.80
16263;DHT22;8239;48.594;8.598;2022-08-19T13:53:32;23.70;75.20
16263;DHT22;8239;48.594;8.598;2022-08-19T13:56:00;23.60;75.30
16263;DHT22;8239;48.594;8.598;2022-08-19T13:58:31;23.50;75.90
16263;DHT22;8239;48.594;8.598;2022-08-19T14:00:58;23.50;76.60
16263;DHT22;8239;48.594;8.598;2022-08-19T14:03:26;23.50;76.90
16263;DHT22;8239;48.594;8.598;2022-08-19T14:05:53;23.60;76.90
16263;DHT22;8239;48.594;8.598;2022-08-19T14:08:20;23.60;76.40
16263;DHT22;8239;48.594;8.598;2022-08-19T14:10:47;23.70;76.30
16263;DHT22;8239;48.594;8.598;2022-08-19T14:13:17;23.80;76.10
16263;DHT22;8239;48.594;8.598;2022-08-19T14:15:44;23.90;75.60
16263;DHT22;8239;48.594;8.598;2022-08-19T14:18:13;23.90;75.80
16263;DHT22;8239;48.594;8.598;2022-08-19T14:20:40;24.00;75.50
16263;DHT22;8239;48.594;8.598;2022-08-19T14:23:07;24.00;74.90
16263;DHT22;8239;48.594;8.598;2022-08-19T14:25:34;24.00;75.20
16263;DHT22;8239;48.594;8.598;2022-08-19T14:28:01;24.00;75.20
16263;DHT22;8239;48.594;8.598;2022-08-19T14:30:31;24.10;76.20
16263;DHT22;8239;48.594;8.598;2022-08-19T14:33:00;24.20;76.10
16263;DHT22;8239;48.594;8.598;2022-08-19T14:35:29;24.40;75.60
16263;DHT22;8239;48.594;8.598;2022-08-19T14:37:58;24.90;76.20
16263;DHT22;8239;48.594;8.598;2022-08-19T14:40:27;25.80;75.10
16263;DHT22;8239;48.594;8.598;2022-08-19T14:42:56;27.00;72.40
16263;DHT22;8239;48.594;8.598;2022-08-19T14:45:25;28.00;67.40
16263;DHT22;8239;48.594;8.598;2022-08-19T14:47:54;28.70;64.10
16263;DHT22;8239;48.594;8.598;2022-08-19T14:50:21;29.30;59.50
16263;DHT22;8239;48.594;8.598;2022-08-19T14:52:49;29.60;57.70
16263;DHT22;8239;48.594;8.598;2022-08-19T14:55:17;29.80;56.30
16263;DHT22;8239;48.594;8.598;2022-08-19T14:57:45;29.80;56.50
16263;DHT22;8239;48.594;8.598;2022-08-19T15:00:13;29.60;56.10
16263;DHT22;8239;48.594;8.598;2022-08-19T15:02:41;29.30;56.30
16263;DHT22;8239;48.594;8.598;2022-08-19T15:05:11;29.00;56.30
16263;DHT22;8239;48.594;8.598;2022-08-19T15:07:38;28.40;57.80
16263;DHT22;8239;48.594;8.598;2022-08-19T15:10:07;28.30;58.90
16263;DHT22;8239;48.594;8.598;2022-08-19T15:12:36;28.20;59.10
16263;DHT22;8239;48.594;8.598;2022-08-19T15:15:06;28.20;59.20
16263;DHT22;8239;48.594;8.598;2022-08-19T15:17:34;28.20;58.80
16263;DHT22;8239;48.594;8.598;2022-08-19T15:20:03;28.20;58.40
16263;DHT22;8239;48.594;8.598;2022-08-19T15:22:32;28.10;58.10
16263;DHT22;8239;48.594;8.598;2022-08-19T15:25:01;28.00;58.30
16263;DHT22;8239;48.594;8.598;2022-08-19T15:27:28;27.90;57.80
16263;DHT22;8239;48.594;8.598;2022-08-19T15:29:55;27.70;58.50
16263;DHT22;8239;48.594;8.598;2022-08-19T15:32:22;27.50;58.20
16263;DHT22;8239;48.594;8.598;2022-08-19T15:34:51;27.30;58.70
16263;DHT22;8239;48.594;8.598;2022-08-19T15:37:18;27.10;58.90
16263;DHT22;8239;48.594;8.598;2022-08-19T15:39:48;26.80;59.30
16263;DHT22;8239;48.594;8.598;2022-08-19T15:42:15;26.50;59.90
16263;DHT22;8239;48.594;8.598;2022-08-19T15:44:42;26.20;61.20
16263;DHT22;8239;48.594;8.598;2022-08-19T15:47:09;25.80;61.10
16263;DHT22;8239;48.594;8.598;2022-08-19T15:49:37;25.50;62.40
16263;DHT22;8239;48.594;8.598;2022-08-19T15:52:04;25.10;64.10
16263;DHT22;8239;48.594;8.598;2022-08-19T15:54:32;24.80;65.20
16263;DHT22;8239;48.594;8.598;2022-08-19T15:57:01;24.60;66.00